This is the latest recevied weather packets stored in our database for station/object N8QQ. If no packets are shown the sender has not sent any weather packets the latest 10 day(s).
| Time | Temp. | Humidity | Pressure | Rain* | Wind** | Luminosity | Snow |
|---|---|---|---|---|---|---|---|
| 1777691425 | 5° C | 83% | 1012.9 hPa | 0 mm | - | - | - |
| 1777687826 | 6.11° C | 80% | 1012.2 hPa | 0 mm | - | - | - |
| 1777687229 | 6.11° C | 76% | 1012.1 hPa | 0 mm | - | - | - |
| 1777686632 | 6.67° C | 75% | 1012 hPa | 0 mm | - | - | - |
| 1777676431 | 12.22° C | 54% | 1010.5 hPa | 0 mm | - | - | - |
| 1777675836 | 13.33° C | 53% | 1010.5 hPa | 0 mm | - | - | - |
| 1777672216 | 12.22° C | 58% | 1010.4 hPa | 0 mm | - | - | - |
| 1777671640 | 11.67° C | 60% | 1010.4 hPa | 0 mm | - | - | - |
| 1777669232 | 12.78° C | 58% | 1010.3 hPa | 0 mm | - | - | - |
| 1777668617 | 12.78° C | 57% | 1010.1 hPa | 0 mm | - | - | - |
| 1777665038 | 14.44° C | 58% | 1010 hPa | 0 mm | - | - | - |
| 1777662017 | 14.44° C | 57% | 1010.1 hPa | 0 mm | - | - | - |
| 1777660225 | 13.89° C | 60% | 1009.7 hPa | 0 mm | - | - | - |
| 1777654219 | 12.22° C | 75% | 1009 hPa | 0 mm | - | - | - |
| 1777648829 | 11.11° C | 84% | 1007.9 hPa | 0 mm | - | - | - |
| 1777647617 | 10° C | 85% | 1008 hPa | 0 mm | - | - | - |
| 1777642229 | 10° C | 77% | 1007.4 hPa | 0 mm | - | - | - |
| 1777638031 | 8.89° C | 77% | 1007.2 hPa | 0 mm | - | - | - |
| 1777636222 | 8.89° C | 74% | 1007.2 hPa | 0 mm | - | - | - |
| 1777633817 | 8.33° C | 76% | 1007.3 hPa | 0 mm | - | - | - |
| 1777632026 | 8.33° C | 76% | 1007.3 hPa | 0 mm | - | - | - |
| 1777627818 | 7.78° C | 77% | 1008.1 hPa | 0 mm | - | - | - |
| 1777627233 | 7.78° C | 77% | 1008.1 hPa | 0 mm | - | - | - |
| 1777626022 | 7.78° C | 76% | 1008 hPa | 0 mm | - | - | - |
| 1777623616 | 6.67° C | 82% | 1008.4 hPa | 0 mm | - | - | - |
* Rain latest hour (hover to see other rain measurements)
** Current wind speed in m/s (hover to see current wind gust speed)